createdAt,value
2023-06-19T00:00:25.408Z,615.4
2023-06-19T00:02:04.150Z,616.8
2023-06-19T00:03:11.428Z,618.9
2023-06-19T00:04:18.642Z,617
2023-06-19T00:05:57.412Z,617.6
2023-06-19T00:07:36.122Z,616.6
2023-06-19T00:09:14.866Z,616.9
2023-06-19T00:10:53.592Z,617
2023-06-19T00:12:32.355Z,618.7
2023-06-19T00:14:11.092Z,617.6
2023-06-19T00:15:49.801Z,617.6
2023-06-19T00:19:39.533Z,618
2023-06-19T00:20:47.704Z,616.3
2023-06-19T00:24:03.635Z,616.9
2023-06-19T00:25:09.438Z,616.1
2023-06-19T00:26:15.904Z,617.2
2023-06-19T00:27:22.431Z,618.6
2023-06-19T00:28:28.933Z,616.5
2023-06-19T00:29:35.418Z,615.7
2023-06-19T00:30:41.903Z,617.4
2023-06-19T00:31:48.379Z,616.2
2023-06-19T00:32:54.864Z,615.9
2023-06-19T00:34:01.358Z,616.3
2023-06-19T00:35:07.836Z,616.5
2023-06-19T00:36:14.353Z,617.2
2023-06-19T00:37:20.821Z,618
2023-06-19T00:38:27.277Z,617.4
2023-06-19T00:39:33.757Z,616.4
2023-06-19T00:40:40.244Z,616.1
2023-06-19T00:41:46.716Z,617.9
2023-06-19T00:42:53.208Z,617.3
2023-06-19T00:43:59.683Z,616.4
2023-06-19T00:45:06.167Z,617.8
2023-06-19T00:46:12.676Z,617.5
2023-06-19T00:47:19.137Z,618.2
2023-06-19T00:48:25.615Z,616.5
2023-06-19T00:49:32.098Z,616.1
2023-06-19T00:50:38.596Z,616.4
2023-06-19T00:51:45.058Z,616.8
2023-06-19T00:52:51.779Z,617.9
2023-06-19T00:53:58.525Z,617
2023-06-19T00:55:05.228Z,618.3
2023-06-19T00:56:11.952Z,617.1
2023-06-19T00:57:18.668Z,617.9
2023-06-19T00:58:25.383Z,617
2023-06-19T00:59:32.106Z,617.9
2023-06-19T01:00:38.831Z,616.4
2023-06-19T01:01:45.570Z,616.2
2023-06-19T01:02:52.276Z,616.8
2023-06-19T01:03:59.076Z,617
2023-06-19T01:05:05.740Z,617.6
2023-06-19T01:06:12.459Z,617.3
2023-06-19T01:09:30.625Z,617
2023-06-19T01:10:37.825Z,616.4
2023-06-19T01:11:45.028Z,616.9
2023-06-19T01:13:23.769Z,616.8
2023-06-19T01:15:02.529Z,616.7
2023-06-19T01:16:41.256Z,617.2
2023-06-19T01:18:20.008Z,615
2023-06-19T01:19:58.737Z,618.2
2023-06-19T01:21:37.563Z,617.6
2023-06-19T01:23:16.239Z,617.9
2023-06-19T01:24:54.973Z,616.9
2023-06-19T01:26:33.712Z,616.2
2023-06-19T01:27:40.911Z,615.9
2023-06-19T01:30:41.765Z,616.8
2023-06-19T01:33:57.461Z,616.8
2023-06-19T01:35:03.938Z,617.7
2023-06-19T01:36:10.427Z,616.8
2023-06-19T01:37:16.907Z,617
2023-06-19T01:38:23.401Z,617.1
2023-06-19T01:39:29.923Z,617.1
2023-06-19T01:40:36.342Z,616.1
2023-06-19T01:41:42.824Z,617.3
2023-06-19T01:42:49.316Z,616.3
2023-06-19T01:43:55.813Z,616.6
2023-06-19T01:45:02.288Z,617
2023-06-19T01:46:08.767Z,616.1
2023-06-19T01:47:15.246Z,616.3
2023-06-19T01:48:21.741Z,617
2023-06-19T01:50:34.693Z,617.3
2023-06-19T01:51:41.248Z,617
2023-06-19T01:52:47.779Z,617.6
2023-06-19T01:53:54.313Z,616.6
2023-06-19T01:55:00.859Z,618
2023-06-19T01:56:07.430Z,616.5
2023-06-19T01:57:13.945Z,616.5
2023-06-19T01:58:20.478Z,617.2
2023-06-19T01:59:27.026Z,616.2
2023-06-19T02:00:33.567Z,617.6
2023-06-19T02:01:40.283Z,617.5
2023-06-19T02:02:47.099Z,616.6
2023-06-19T02:03:53.842Z,616.2
2023-06-19T02:05:00.618Z,617.2
2023-06-19T02:06:07.403Z,618
2023-06-19T02:07:14.170Z,615.8
2023-06-19T02:08:20.953Z,617.4
2023-06-19T02:09:27.734Z,616.6
2023-06-19T02:10:34.501Z,617.6
2023-06-19T02:11:41.291Z,618.1
2023-06-19T02:12:48.076Z,616.8
2023-06-19T02:13:54.858Z,616.6
2023-06-19T02:15:01.633Z,617.5
2023-06-19T02:16:08.864Z,617.4
2023-06-19T02:17:47.599Z,617.1
2023-06-19T02:19:26.347Z,615.8
2023-06-19T02:21:05.088Z,617.3
2023-06-19T02:22:43.835Z,616.7
2023-06-19T02:24:22.572Z,617.5
2023-06-19T02:26:01.314Z,617.9
2023-06-19T02:27:40.058Z,617
2023-06-19T02:29:18.808Z,616.3
2023-06-19T02:30:57.536Z,617.1
2023-06-19T02:32:36.270Z,618
2023-06-19T02:34:15.028Z,618.4
2023-06-19T02:35:53.773Z,618.4
2023-06-19T02:40:01.825Z,617.7
2023-06-19T02:41:08.365Z,617.4
2023-06-19T02:43:17.513Z,617
2023-06-19T02:44:24.001Z,616.2
2023-06-19T02:45:30.481Z,616.4
2023-06-19T02:46:36.956Z,618.3
2023-06-19T02:47:43.457Z,616.4
2023-06-19T02:48:49.927Z,617.4
2023-06-19T02:49:56.400Z,616.5
2023-06-19T02:51:02.890Z,618
2023-06-19T02:52:09.372Z,617
2023-06-19T02:53:15.882Z,617.9
2023-06-19T02:54:22.333Z,618.6
2023-06-19T02:55:28.822Z,618.2
2023-06-19T02:56:35.297Z,617.3
2023-06-19T02:57:41.786Z,617.1
2023-06-19T02:58:48.252Z,615.8
2023-06-19T02:59:54.758Z,617.9
2023-06-19T03:01:01.226Z,616.8
2023-06-19T03:02:07.723Z,617
2023-06-19T03:03:14.189Z,617.4
2023-06-19T03:04:20.669Z,617.7
2023-06-19T03:05:27.159Z,616.9
2023-06-19T03:06:33.637Z,616.6
2023-06-19T03:07:40.115Z,617
2023-06-19T03:08:46.664Z,617.5
2023-06-19T03:09:53.389Z,617.5
2023-06-19T03:11:00.168Z,616.5
2023-06-19T03:12:06.945Z,617.6
2023-06-19T03:13:13.663Z,617.3
2023-06-19T03:14:20.473Z,616.9
2023-06-19T03:15:27.229Z,617.9
2023-06-19T03:16:34.012Z,616.8
2023-06-19T03:17:40.736Z,617
2023-06-19T03:18:47.464Z,617.4
2023-06-19T03:19:54.171Z,616.7
2023-06-19T03:21:00.959Z,617.4
2023-06-19T03:22:07.742Z,616.6
2023-06-19T03:23:14.513Z,617.7
2023-06-19T03:25:53.993Z,616
2023-06-19T03:27:32.741Z,617.1
2023-06-19T03:29:11.480Z,616.9
2023-06-19T03:30:50.234Z,617.4
2023-06-19T03:31:57.430Z,616.5
2023-06-19T03:33:04.631Z,615.9
2023-06-19T03:34:43.372Z,617.4
2023-06-19T03:36:22.124Z,616.9
2023-06-19T03:38:00.867Z,616.7
2023-06-19T03:39:39.618Z,617.3
2023-06-19T03:41:18.352Z,617.3
2023-06-19T03:42:57.099Z,617.2
2023-06-19T03:44:35.841Z,617.9
2023-06-19T03:49:33.632Z,616.5
2023-06-19T03:52:49.610Z,615.7
2023-06-19T03:53:56.281Z,616.6
2023-06-19T03:55:03.071Z,616.4
2023-06-19T03:56:09.850Z,615.3
2023-06-19T03:57:16.632Z,615.4
2023-06-19T03:58:23.417Z,618.2
2023-06-19T03:59:30.178Z,617.1
2023-06-19T04:00:36.970Z,615.3
2023-06-19T04:01:43.744Z,616.6
2023-06-19T04:02:50.524Z,616.5
2023-06-19T04:03:57.306Z,616.4
2023-06-19T04:05:04.092Z,617.8
2023-06-19T04:06:10.865Z,617.5
2023-06-19T04:07:17.648Z,615.6
2023-06-19T04:08:24.428Z,615.4
2023-06-19T04:09:31.206Z,616.3
2023-06-19T04:10:38.002Z,617
2023-06-19T04:11:44.778Z,616.3
2023-06-19T04:12:51.489Z,617.1
2023-06-19T04:13:58.216Z,616.3
2023-06-19T04:15:05.004Z,616.5
2023-06-19T04:16:11.784Z,615.6
2023-06-19T04:17:18.541Z,615.9
2023-06-19T04:18:25.283Z,615.7
2023-06-19T04:19:32.068Z,616.5
2023-06-19T04:21:18.403Z,615.9
2023-06-19T04:22:25.663Z,615.9
2023-06-19T04:24:04.405Z,616.7
2023-06-19T04:25:43.145Z,615.2
2023-06-19T04:27:21.878Z,616.6
2023-06-19T04:29:00.641Z,617
2023-06-19T04:30:39.376Z,617.3
2023-06-19T04:32:18.147Z,614.4
2023-06-19T04:33:56.852Z,615.2
2023-06-19T04:35:35.609Z,615.8
2023-06-19T04:37:14.349Z,615.1
2023-06-19T04:38:21.591Z,615.1
2023-06-19T04:39:28.892Z,616.4
2023-06-19T04:43:36.902Z,615.7
2023-06-19T04:46:52.814Z,615.3
2023-06-19T04:47:59.525Z,615.7
2023-06-19T04:49:06.309Z,615.7
2023-06-19T04:50:13.113Z,615.1
2023-06-19T04:51:19.820Z,615.7
2023-06-19T04:52:26.578Z,616.3
2023-06-19T04:53:33.385Z,614.9
2023-06-19T04:54:40.156Z,614.1
2023-06-19T04:55:46.921Z,615.5
2023-06-19T04:56:53.704Z,615.4
2023-06-19T04:58:00.426Z,614.5
2023-06-19T04:59:07.141Z,614.9
2023-06-19T05:00:13.860Z,614.6
2023-06-19T05:01:20.587Z,614.6
2023-06-19T05:02:27.303Z,614.9
2023-06-19T05:03:34.040Z,614.4
2023-06-19T05:04:40.775Z,616.5
2023-06-19T05:05:47.476Z,613.7
2023-06-19T05:08:00.926Z,615.2
2023-06-19T05:09:07.635Z,614.6
2023-06-19T05:10:14.356Z,614
2023-06-19T05:11:21.070Z,616.2
2023-06-19T05:12:27.855Z,616
2023-06-19T05:15:08.884Z,616
2023-06-19T05:16:47.647Z,614.6
2023-06-19T05:18:26.361Z,616.1
2023-06-19T05:20:05.133Z,614.9
2023-06-19T05:21:43.863Z,614
2023-06-19T05:22:51.113Z,616.4
2023-06-19T05:23:58.366Z,615.5
2023-06-19T05:25:37.096Z,615.8
2023-06-19T05:27:15.831Z,614.1
2023-06-19T05:28:54.590Z,613.6
2023-06-19T05:30:33.308Z,616.4
2023-06-19T05:32:12.068Z,615.6
2023-06-19T05:33:50.790Z,615.6
2023-06-19T05:37:58.846Z,616.5
2023-06-19T05:39:17.633Z,616.8
2023-06-19T05:41:14.762Z,617.4
2023-06-19T05:42:21.539Z,616.8
2023-06-19T05:43:28.297Z,615.6
2023-06-19T05:44:34.982Z,615.5
2023-06-19T05:45:41.696Z,616.7
2023-06-19T05:46:48.425Z,615.4
2023-06-19T05:47:55.130Z,615.7
2023-06-19T05:49:01.860Z,616.8
2023-06-19T05:50:08.581Z,615.4
2023-06-19T05:51:15.330Z,614.8
2023-06-19T05:52:22.042Z,615.4
2023-06-19T05:53:28.729Z,615.8
2023-06-19T05:54:35.544Z,616.3
2023-06-19T05:55:42.237Z,616.8
2023-06-19T05:56:48.969Z,615.4
2023-06-19T05:57:55.669Z,615.6
2023-06-19T05:59:02.416Z,616.6
2023-06-19T06:00:09.117Z,617.1
2023-06-19T06:01:15.903Z,616.5
2023-06-19T06:02:22.682Z,617.5
2023-06-19T06:03:29.474Z,615.3
2023-06-19T06:04:36.246Z,616.7
2023-06-19T06:05:43.096Z,617
2023-06-19T06:06:49.780Z,617.3
2023-06-19T06:08:23.786Z,617.3
2023-06-19T06:10:02.529Z,616
2023-06-19T06:11:41.273Z,616.5
2023-06-19T06:13:20.007Z,615.8
2023-06-19T06:14:58.752Z,616.6
2023-06-19T06:16:06.055Z,615.7
2023-06-19T06:17:13.255Z,616
2023-06-19T06:18:51.989Z,615
2023-06-19T06:20:30.732Z,617.5
2023-06-19T06:22:09.477Z,617
2023-06-19T06:25:26.958Z,617.5
2023-06-19T06:27:05.697Z,617.8
2023-06-19T06:31:13.758Z,616.7
2023-06-19T06:32:32.533Z,615.6
2023-06-19T06:34:29.658Z,617.1
2023-06-19T06:35:36.447Z,616.2
2023-06-19T06:36:43.159Z,617.1
2023-06-19T06:37:49.878Z,616.7
2023-06-19T06:38:56.655Z,617.1
2023-06-19T06:40:03.592Z,617.3
2023-06-19T06:41:10.296Z,617.6
2023-06-19T06:42:16.946Z,616.5
2023-06-19T06:43:23.683Z,616.7
2023-06-19T06:44:30.434Z,615.7
2023-06-19T06:45:37.274Z,616.3
2023-06-19T06:46:43.948Z,618
2023-06-19T06:47:50.628Z,616.7
2023-06-19T06:48:57.370Z,616.7
2023-06-19T06:50:04.032Z,616.5
2023-06-19T06:51:10.802Z,616.9
2023-06-19T06:52:17.601Z,617.6
2023-06-19T06:53:24.303Z,615.7
2023-06-19T06:54:31.059Z,616.5
2023-06-19T06:55:37.813Z,616.4
2023-06-19T06:56:44.528Z,615.9
2023-06-19T06:58:58.068Z,616.4
2023-06-19T07:00:04.798Z,616
2023-06-19T07:02:17.034Z,617.5
2023-06-19T07:03:55.771Z,617
2023-06-19T07:05:34.516Z,617.6
2023-06-19T07:07:12.116Z,615.3
2023-06-19T07:08:19.378Z,616.8
2023-06-19T07:09:58.119Z,615.9
2023-06-19T07:11:36.848Z,616.8
2023-06-19T07:13:15.597Z,615.5
2023-06-19T07:14:54.335Z,615.6
2023-06-19T07:16:33.084Z,614.6
2023-06-19T07:18:11.814Z,616.2
2023-06-19T07:19:50.601Z,615.3
2023-06-19T07:21:29.313Z,615.4
2023-06-19T07:23:40.124Z,617.1
2023-06-19T07:25:36.430Z,615.7
2023-06-19T07:27:23.261Z,615.5
2023-06-19T07:29:02.024Z,616.6
2023-06-19T07:30:40.759Z,616.7
2023-06-19T07:32:19.484Z,616.6
2023-06-19T07:33:58.283Z,616.3
2023-06-19T07:35:36.960Z,616.7
2023-06-19T07:37:15.704Z,617.3
2023-06-19T07:38:54.445Z,616.2
2023-06-19T07:40:33.205Z,616.1
2023-06-19T07:42:11.924Z,616.1
2023-06-19T07:43:50.665Z,617.6
2023-06-19T07:45:29.416Z,615.3
2023-06-19T07:47:08.156Z,616.7
2023-06-19T07:48:46.906Z,615.8
2023-06-19T07:50:25.667Z,616.2
2023-06-19T07:52:04.373Z,615.8
2023-06-19T07:53:43.110Z,618.5
2023-06-19T07:55:21.865Z,618.1
2023-06-19T07:56:33.109Z,617.1
2023-06-19T07:57:40.338Z,617.7
2023-06-19T07:59:19.049Z,616.9
2023-06-19T08:00:57.792Z,618.9
2023-06-19T08:02:36.536Z,618
2023-06-19T08:04:15.307Z,618
2023-06-19T08:08:23.336Z,617.8
2023-06-19T08:11:39.851Z,618.2
2023-06-19T08:13:00.144Z,617.1
2023-06-19T08:14:07.350Z,618.1
2023-06-19T08:15:46.098Z,618.1
2023-06-19T08:17:24.847Z,618.3
2023-06-19T08:19:03.565Z,618.2
2023-06-19T08:20:42.304Z,618.9
2023-06-19T08:22:21.054Z,617.7
2023-06-19T08:23:59.797Z,617.3
2023-06-19T08:25:38.537Z,618
2023-06-19T08:27:17.279Z,616.1
2023-06-19T08:28:56.025Z,617.1
2023-06-19T08:31:10.437Z,618.1
2023-06-19T08:32:49.173Z,618.3
2023-06-19T08:34:27.929Z,619.4
2023-06-19T08:36:06.654Z,618.4
2023-06-19T08:37:45.395Z,617.9
2023-06-19T08:39:24.137Z,618.2
2023-06-19T08:41:02.872Z,617.6
2023-06-19T08:42:41.607Z,618.5
2023-06-19T08:44:20.353Z,617.7
2023-06-19T08:45:59.093Z,618.1
2023-06-19T08:47:06.297Z,619
2023-06-19T08:48:13.544Z,617.9
2023-06-19T08:52:21.620Z,618.7
2023-06-19T08:55:38.114Z,617.9
2023-06-19T08:57:24.942Z,618.6
2023-06-19T08:59:03.696Z,619.1
2023-06-19T09:00:42.417Z,617.7
2023-06-19T09:02:21.147Z,620.2
2023-06-19T09:03:33.318Z,618.3
2023-06-19T09:04:40.560Z,618.5
2023-06-19T09:06:19.291Z,618.5
2023-06-19T09:07:58.043Z,620.1
2023-06-19T09:09:36.793Z,619.3
2023-06-19T09:11:15.555Z,618.1
2023-06-19T09:12:54.252Z,618.6
2023-06-19T09:14:32.993Z,617.7
2023-06-19T09:16:11.750Z,618.4
2023-06-19T09:17:50.478Z,619.9
2023-06-19T09:19:29.220Z,620.3
2023-06-19T09:20:36.544Z,619.3
2023-06-19T09:21:43.839Z,619.3
2023-06-19T09:23:22.599Z,618.6
2023-06-19T09:25:01.314Z,619.2
2023-06-19T09:28:18.660Z,619.4
2023-06-19T09:29:57.395Z,619.6
2023-06-19T09:31:36.124Z,619.1
2023-06-19T09:33:14.867Z,619.6
2023-06-19T09:37:04.475Z,620.1
2023-06-19T09:38:11.292Z,619.1
2023-06-19T09:39:18.073Z,618.4
2023-06-19T09:40:24.839Z,618.6
2023-06-19T09:41:31.621Z,618.9
2023-06-19T09:42:38.392Z,620.9
2023-06-19T09:43:45.191Z,618.7
2023-06-19T09:44:51.940Z,618.2
2023-06-19T09:45:58.725Z,619.3
2023-06-19T09:47:05.501Z,620.3
2023-06-19T09:48:12.270Z,619.1
2023-06-19T09:49:19.048Z,618.2
2023-06-19T09:50:25.819Z,619.1
2023-06-19T09:51:32.596Z,619.1
2023-06-19T09:52:39.378Z,618.6
2023-06-19T09:54:52.930Z,619.5
2023-06-19T09:55:59.711Z,618.4
2023-06-19T09:57:06.497Z,619.4
2023-06-19T09:58:13.373Z,618.3
2023-06-19T09:59:20.120Z,619.5
2023-06-19T10:00:26.862Z,619.8
2023-06-19T10:01:33.728Z,620
2023-06-19T10:02:40.589Z,619.1
2023-06-19T10:04:54.008Z,619.8
2023-06-19T10:07:06.163Z,619.1
2023-06-19T10:08:44.901Z,617.9
2023-06-19T10:09:57.522Z,618
2023-06-19T10:11:04.772Z,619.4
2023-06-19T10:12:43.533Z,618.3
2023-06-19T10:14:22.254Z,618.1
2023-06-19T10:16:00.995Z,618.7
2023-06-19T10:17:39.736Z,618.6
2023-06-19T10:19:18.487Z,618.2
2023-06-19T10:20:57.216Z,619.1
2023-06-19T10:22:36.004Z,617.4
2023-06-19T10:24:14.767Z,618.3
2023-06-19T10:25:53.602Z,619.2
2023-06-19T10:27:33.288Z,619.8
2023-06-19T10:30:49.699Z,620.4
2023-06-19T10:32:36.510Z,620.3
2023-06-19T10:34:15.244Z,618.8
2023-06-19T10:35:53.981Z,620.1
2023-06-19T10:37:32.722Z,618.9
2023-06-19T10:39:11.468Z,618.8
2023-06-19T10:40:50.213Z,620.2
2023-06-19T10:42:28.951Z,619.8
2023-06-19T10:44:07.690Z,619.3
2023-06-19T10:45:46.436Z,621.1
2023-06-19T10:47:25.186Z,620.5
2023-06-19T10:49:03.923Z,619.9
2023-06-19T10:50:42.667Z,621.3
2023-06-19T10:51:49.920Z,619.8
2023-06-19T10:52:57.167Z,620.6
2023-06-19T10:54:35.909Z,621.1
2023-06-19T10:56:14.645Z,620.2
2023-06-19T10:57:53.386Z,619.9
2023-06-19T10:59:32.126Z,619.5
2023-06-19T11:01:10.853Z,619.2
2023-06-19T11:02:49.611Z,620.6
2023-06-19T11:04:28.349Z,621.7
2023-06-19T11:06:07.097Z,619
2023-06-19T11:07:45.826Z,619.2
2023-06-19T11:08:53.026Z,619.2
2023-06-19T11:11:53.876Z,619.8
2023-06-19T11:15:10.458Z,619.5
2023-06-19T11:17:05.388Z,619.5
2023-06-19T11:18:44.115Z,620.4
2023-06-19T11:20:22.863Z,620.4
2023-06-19T11:22:01.599Z,621.3
2023-06-19T11:23:40.353Z,619.7
2023-06-19T11:25:19.080Z,621.3
2023-06-19T11:26:26.296Z,620.3
2023-06-19T11:27:33.528Z,620.6
2023-06-19T11:29:12.268Z,620.2
2023-06-19T11:30:51.032Z,620.2
2023-06-19T11:32:29.840Z,621.4
2023-06-19T11:34:08.480Z,621.1
2023-06-19T11:35:47.282Z,620.4
2023-06-19T11:37:25.972Z,620.2
2023-06-19T11:39:04.749Z,620.4
2023-06-19T11:40:43.447Z,621.1
2023-06-19T11:42:22.186Z,620.2
2023-06-19T11:43:29.384Z,620.4
2023-06-19T11:44:36.592Z,620.6
2023-06-19T11:46:15.327Z,621.1
2023-06-19T11:47:54.068Z,621.1
2023-06-19T11:49:32.800Z,620.7
2023-06-19T11:51:11.570Z,621
2023-06-19T11:52:50.289Z,619.7
2023-06-19T11:56:58.335Z,620.7
2023-06-19T11:59:55.890Z,621.4
2023-06-19T12:01:02.674Z,621.5
2023-06-19T12:02:09.438Z,620.4
2023-06-19T12:03:16.221Z,620.9
2023-06-19T12:04:23.013Z,621.9
2023-06-19T12:05:29.787Z,621.1
2023-06-19T12:06:36.511Z,620.7
2023-06-19T12:07:43.289Z,620.6
2023-06-19T12:08:50.061Z,621.7
2023-06-19T12:09:56.835Z,621.1
2023-06-19T12:12:10.401Z,621.6
2023-06-19T12:13:17.173Z,621.5
2023-06-19T12:14:23.947Z,622.5
2023-06-19T12:15:30.742Z,621
2023-06-19T12:16:37.509Z,620.8
2023-06-19T12:17:44.284Z,622.7
2023-06-19T12:18:51.056Z,622
2023-06-19T12:19:57.785Z,620.7
2023-06-19T12:21:04.500Z,621.7
2023-06-19T12:22:11.210Z,620.9
2023-06-19T12:23:17.995Z,621.7
2023-06-19T12:24:24.777Z,621
2023-06-19T12:25:31.559Z,622.4
2023-06-19T12:26:38.342Z,621.8
2023-06-19T12:28:12.354Z,621.7
2023-06-19T12:29:51.086Z,620.6
2023-06-19T12:31:29.837Z,622.7
2023-06-19T12:33:08.562Z,621.5
2023-06-19T12:34:47.308Z,622.4
2023-06-19T12:35:54.551Z,623
2023-06-19T12:37:01.801Z,621.6
2023-06-19T12:38:40.549Z,620.3
2023-06-19T12:40:19.279Z,621.7
2023-06-19T12:41:58.032Z,622.3
2023-06-19T12:43:36.775Z,621.4
2023-06-19T12:45:15.513Z,622.1
2023-06-19T12:46:54.258Z,622
2023-06-19T12:51:02.321Z,622.9
2023-06-19T12:52:21.086Z,621.9
2023-06-19T12:54:18.236Z,622.4
2023-06-19T12:55:24.960Z,621.9
2023-06-19T12:56:31.686Z,623.7
2023-06-19T12:57:38.450Z,622
2023-06-19T12:58:45.239Z,621.4
2023-06-19T12:59:52.016Z,622.1
2023-06-19T13:00:58.869Z,621.6
2023-06-19T13:02:05.562Z,622.4
2023-06-19T13:03:12.349Z,620.9
2023-06-19T13:04:19.165Z,621.9
2023-06-19T13:05:25.897Z,621.9
2023-06-19T13:06:32.682Z,622.1
2023-06-19T13:07:39.464Z,623
2023-06-19T13:08:46.253Z,621.9
2023-06-19T13:09:53.055Z,621
2023-06-19T13:10:59.827Z,623.1
2023-06-19T13:12:06.569Z,622.5
2023-06-19T13:13:13.354Z,622.1
2023-06-19T13:14:20.134Z,621.9
2023-06-19T13:15:26.924Z,621.4
2023-06-19T13:16:33.688Z,621.7
2023-06-19T13:17:40.500Z,622.1
2023-06-19T13:18:47.241Z,621.5
2023-06-19T13:19:54.036Z,622.7
2023-06-19T13:22:06.264Z,621.3
2023-06-19T13:23:45.002Z,622.4
2023-06-19T13:25:23.737Z,623.1
2023-06-19T13:28:08.602Z,621.2
2023-06-19T13:29:47.289Z,622
2023-06-19T13:31:26.024Z,621.4
2023-06-19T13:33:04.763Z,621.3
2023-06-19T13:34:43.489Z,623.1
2023-06-19T13:36:22.226Z,622.2
2023-06-19T13:38:00.967Z,622.4
2023-06-19T13:39:39.707Z,622
2023-06-19T13:41:18.448Z,622.2
2023-06-19T13:43:29.331Z,622.5
2023-06-19T13:45:25.003Z,621.2
2023-06-19T13:46:31.711Z,622.6
2023-06-19T13:47:38.518Z,621.9
2023-06-19T13:48:45.264Z,622.6
2023-06-19T13:49:52.137Z,623.7
2023-06-19T13:50:58.830Z,621.1
2023-06-19T13:52:05.610Z,622.9
2023-06-19T13:53:12.402Z,623.2
2023-06-19T13:54:19.152Z,622.7
2023-06-19T13:55:25.945Z,622.9
2023-06-19T13:56:32.718Z,621.6
2023-06-19T13:57:39.505Z,622.1
2023-06-19T13:58:46.278Z,622.1
2023-06-19T13:59:53.092Z,622.6
2023-06-19T14:00:59.798Z,622.2
2023-06-19T14:02:06.506Z,622.3
2023-06-19T14:03:13.284Z,622.7
2023-06-19T14:04:20.071Z,622.8
2023-06-19T14:05:26.860Z,622.5
2023-06-19T14:06:33.627Z,623.6
2023-06-19T14:07:40.408Z,622.4
2023-06-19T14:08:47.159Z,624.1
2023-06-19T14:09:53.921Z,622.6
2023-06-19T14:11:00.698Z,623.2
2023-06-19T14:12:07.494Z,622.6
2023-06-19T14:14:19.867Z,624.5
2023-06-19T14:15:58.415Z,622
2023-06-19T14:17:05.656Z,623.2
2023-06-19T14:18:12.916Z,621.6
2023-06-19T14:19:51.643Z,622.2
2023-06-19T14:21:30.357Z,621.7
2023-06-19T14:23:09.106Z,622.1
2023-06-19T14:24:47.824Z,622.7
2023-06-19T14:26:26.549Z,621.5
2023-06-19T14:28:05.287Z,622.3
2023-06-19T14:29:44.039Z,622.8
2023-06-19T14:31:22.747Z,622.2
2023-06-19T14:33:01.482Z,623.1
2023-06-19T14:34:41.214Z,622.7
2023-06-19T14:37:57.124Z,623.2
2023-06-19T14:39:03.902Z,622.2
2023-06-19T14:40:10.658Z,622.2
2023-06-19T14:41:17.440Z,622.4
2023-06-19T14:42:24.239Z,622.9
2023-06-19T14:43:30.981Z,622.7
2023-06-19T14:44:37.818Z,623.4
2023-06-19T14:45:44.536Z,622.7
2023-06-19T14:46:51.320Z,622.6
2023-06-19T14:47:58.103Z,623.1
2023-06-19T14:49:04.848Z,622.8
2023-06-19T14:50:11.617Z,622.6
2023-06-19T14:51:18.386Z,622.8
2023-06-19T14:52:25.356Z,621.6
2023-06-19T14:53:31.973Z,623.8
2023-06-19T14:54:38.725Z,621.7
2023-06-19T14:55:45.478Z,623.2
2023-06-19T14:56:52.314Z,621.9
2023-06-19T14:57:59.021Z,623.4
2023-06-19T14:59:05.794Z,623.4
2023-06-19T15:00:12.573Z,622.7
2023-06-19T15:01:19.336Z,620.7
2023-06-19T15:02:26.110Z,622
2023-06-19T15:03:32.881Z,622.4
2023-06-19T15:04:39.654Z,623.3
2023-06-19T15:06:51.887Z,623.4
2023-06-19T15:07:59.120Z,622.1
2023-06-19T15:09:06.365Z,623.1
2023-06-19T15:10:45.101Z,622.6
2023-06-19T15:12:23.830Z,623.6
2023-06-19T15:14:02.568Z,621.4
2023-06-19T15:15:41.284Z,623
2023-06-19T15:17:20.014Z,622.1
2023-06-19T15:18:58.744Z,623.7
2023-06-19T15:20:37.469Z,621.9
2023-06-19T15:22:16.204Z,622.6
2023-06-19T15:23:54.953Z,623.3
2023-06-19T15:25:02.228Z,621.2
2023-06-19T15:28:02.970Z,622.7
2023-06-19T15:31:18.859Z,622.8
2023-06-19T15:32:25.610Z,622.1
2023-06-19T15:33:32.400Z,621.8
2023-06-19T15:34:39.157Z,623.3
2023-06-19T15:35:45.927Z,623.2
2023-06-19T15:36:52.711Z,622.3
2023-06-19T15:37:59.472Z,623
2023-06-19T15:39:06.281Z,622.8
2023-06-19T15:40:13.030Z,621.4
2023-06-19T15:41:19.812Z,622.9
2023-06-19T15:42:26.568Z,622.1
2023-06-19T15:43:33.327Z,623.4
2023-06-19T15:44:40.114Z,623.2
2023-06-19T15:45:46.871Z,622.5
2023-06-19T15:46:53.643Z,622.7
2023-06-19T15:48:00.433Z,623.6
2023-06-19T15:49:07.192Z,621.9
2023-06-19T15:50:13.962Z,621.8
2023-06-19T15:51:20.748Z,622
2023-06-19T15:52:27.512Z,623
2023-06-19T15:53:34.276Z,622.7
2023-06-19T15:54:41.079Z,623.3
2023-06-19T15:55:47.821Z,621.9
2023-06-19T15:56:54.592Z,622.3
2023-06-19T15:58:01.372Z,623.6
2023-06-19T15:59:34.763Z,622
2023-06-19T16:00:42.022Z,621.9
2023-06-19T16:02:20.760Z,622.4
2023-06-19T16:03:59.468Z,623.3
2023-06-19T16:05:38.212Z,621.9
2023-06-19T16:07:16.944Z,622.9
2023-06-19T16:08:55.793Z,622.1
2023-06-19T16:10:34.521Z,623.2
2023-06-19T16:12:13.135Z,622.1
2023-06-19T16:13:51.851Z,622.1
2023-06-19T16:15:30.578Z,622.6
2023-06-19T16:17:45.085Z,623
2023-06-19T16:21:53.100Z,621.5
2023-06-19T16:25:09.055Z,621.9
2023-06-19T16:26:15.784Z,621.9
2023-06-19T16:27:22.542Z,622.3
2023-06-19T16:28:29.314Z,621.8
2023-06-19T16:29:36.086Z,622.7
2023-06-19T16:30:42.862Z,622.8
2023-06-19T16:31:49.632Z,622.1
2023-06-19T16:32:56.407Z,622.2
2023-06-19T16:34:03.232Z,622.9
2023-06-19T16:35:09.953Z,621.8
2023-06-19T16:36:16.720Z,621.6
2023-06-19T16:37:23.495Z,623
2023-06-19T16:38:30.319Z,622.8
2023-06-19T16:39:37.091Z,622.3
2023-06-19T16:41:50.576Z,622.3
2023-06-19T16:42:57.352Z,621.8
2023-06-19T16:44:04.127Z,623.2
2023-06-19T16:45:10.976Z,622.1
2023-06-19T16:46:17.673Z,622.4
2023-06-19T16:47:24.435Z,622.2
2023-06-19T16:48:31.209Z,623.6
2023-06-19T16:49:37.990Z,622.3
2023-06-19T16:50:44.785Z,622.4
2023-06-19T16:51:51.525Z,622.4
2023-06-19T16:53:25.939Z,622.8
2023-06-19T16:55:04.672Z,622.2
2023-06-19T16:56:43.401Z,622.4
2023-06-19T16:58:22.163Z,622.6
2023-06-19T17:00:00.855Z,622.9
2023-06-19T17:01:08.113Z,623.2
2023-06-19T17:02:15.359Z,622.1
2023-06-19T17:03:54.078Z,621.9
2023-06-19T17:05:32.822Z,623.7
2023-06-19T17:07:11.548Z,623.5
2023-06-19T17:08:50.280Z,621.3
2023-06-19T17:10:29.028Z,621.4
2023-06-19T17:12:07.759Z,622.8
2023-06-19T17:16:15.849Z,622.6
2023-06-19T17:20:38.518Z,622.4
2023-06-19T17:21:45.270Z,622.2
2023-06-19T17:22:52.056Z,623.1
2023-06-19T17:23:58.941Z,622.8
2023-06-19T17:25:05.599Z,622.3
2023-06-19T17:26:12.383Z,621.7
2023-06-19T17:27:19.130Z,621.4
2023-06-19T17:28:25.899Z,623.2
2023-06-19T17:29:32.682Z,622.4
2023-06-19T17:31:46.174Z,621.6
2023-06-19T17:32:52.969Z,622.4
2023-06-19T17:33:59.761Z,623.2
2023-06-19T17:35:06.550Z,622.4
2023-06-19T17:36:13.311Z,622.9
2023-06-19T17:37:20.096Z,622.7
2023-06-19T17:38:26.847Z,622.1
2023-06-19T17:39:33.635Z,622.8
2023-06-19T17:40:40.403Z,621.9
2023-06-19T17:41:47.182Z,622.1
2023-06-19T17:42:53.973Z,621.5
2023-06-19T17:44:00.724Z,622.5
2023-06-19T17:45:07.520Z,623.7
2023-06-19T17:47:19.733Z,622.1
2023-06-19T17:48:58.447Z,622
2023-06-19T17:50:37.259Z,622.3
2023-06-19T17:52:14.740Z,623
2023-06-19T17:53:21.922Z,622
2023-06-19T17:55:00.688Z,621.6
2023-06-19T17:56:39.423Z,620.5
2023-06-19T17:58:18.163Z,621.4
2023-06-19T17:59:56.905Z,621.9
2023-06-19T18:01:35.636Z,622.1
2023-06-19T18:03:14.365Z,622.8
2023-06-19T18:04:53.166Z,623.1
2023-06-19T18:06:31.829Z,622.5
2023-06-19T18:08:42.776Z,622.3
2023-06-19T18:10:39.844Z,622.2
2023-06-19T18:13:55.747Z,622.7
2023-06-19T18:15:02.530Z,622.5
2023-06-19T18:16:09.269Z,621.9
2023-06-19T18:17:15.976Z,621.8
2023-06-19T18:18:22.701Z,621.3
2023-06-19T18:19:29.479Z,622.4
2023-06-19T18:20:36.265Z,620.7
2023-06-19T18:21:43.039Z,621.3
2023-06-19T18:22:49.804Z,622.2
2023-06-19T18:23:56.594Z,621.2
2023-06-19T18:25:03.299Z,622.3
2023-06-19T18:26:10.016Z,622.6
2023-06-19T18:27:16.742Z,621.7
2023-06-19T18:28:23.474Z,622.8
2023-06-19T18:29:30.252Z,622.4
2023-06-19T18:30:37.033Z,622.6
2023-06-19T18:31:43.811Z,621.8
2023-06-19T18:32:50.589Z,622
2023-06-19T18:33:57.371Z,620
2023-06-19T18:35:04.151Z,622.3
2023-06-19T18:36:10.934Z,622.4
2023-06-19T18:37:17.721Z,621
2023-06-19T18:38:24.489Z,620.9
2023-06-19T18:39:31.268Z,621.2
2023-06-19T18:40:38.056Z,622